createdAt,value
2018-08-13T00:01:22.201Z,3.53
2018-08-13T00:03:50.197Z,2.40
2018-08-13T00:06:18.397Z,2.60
2018-08-13T00:08:46.613Z,2.73
2018-08-13T00:11:14.885Z,3.77
2018-08-13T00:13:43.094Z,2.60
2018-08-13T00:16:11.305Z,3.30
2018-08-13T00:18:39.566Z,2.70
2018-08-13T00:21:07.789Z,2.50
2018-08-13T00:23:36.062Z,2.53
2018-08-13T00:26:04.329Z,11.23
2018-08-13T00:28:32.542Z,3.17
2018-08-13T00:31:00.798Z,2.63
2018-08-13T00:33:29.038Z,3.87
2018-08-13T00:35:57.254Z,5.20
2018-08-13T00:38:25.533Z,2.90
2018-08-13T00:40:53.778Z,5.87
2018-08-13T00:43:21.991Z,2.57
2018-08-13T00:45:50.230Z,3.97
2018-08-13T00:48:18.445Z,2.13
2018-08-13T00:50:46.638Z,3.00
2018-08-13T00:53:14.873Z,3.63
2018-08-13T00:55:43.102Z,3.37
2018-08-13T00:58:11.294Z,2.63
2018-08-13T01:00:39.589Z,3.23
2018-08-13T01:03:07.889Z,4.27
2018-08-13T01:05:36.165Z,2.70
2018-08-13T01:08:04.394Z,3.07
2018-08-13T01:10:32.597Z,3.03
2018-08-13T01:13:00.813Z,2.63
2018-08-13T01:15:29.231Z,2.70
2018-08-13T01:17:57.428Z,4.00
2018-08-13T01:20:25.623Z,3.73
2018-08-13T01:22:53.843Z,2.57
2018-08-13T01:25:22.947Z,4.40
2018-08-13T01:27:51.143Z,3.87
2018-08-13T01:30:19.769Z,5.97
2018-08-13T01:32:48.004Z,3.00
2018-08-13T01:35:16.239Z,3.37
2018-08-13T01:37:44.427Z,3.65
2018-08-13T01:40:13.023Z,2.53
2018-08-13T01:42:41.211Z,3.83
2018-08-13T01:45:11.056Z,2.93
2018-08-13T01:47:39.826Z,3.70
2018-08-13T01:50:10.316Z,5.63
2018-08-13T01:52:38.531Z,4.43
2018-08-13T01:55:08.054Z,2.63
2018-08-13T01:57:36.283Z,2.52
2018-08-13T02:00:07.923Z,2.60
2018-08-13T02:02:36.164Z,2.87
2018-08-13T02:05:05.227Z,2.33
2018-08-13T02:07:33.479Z,3.87
2018-08-13T02:10:01.775Z,2.70
2018-08-13T02:12:30.015Z,3.30
2018-08-13T02:14:58.271Z,3.37
2018-08-13T02:17:26.518Z,2.67
2018-08-13T02:19:54.454Z,3.00
2018-08-13T02:22:22.687Z,3.17
2018-08-13T02:24:50.740Z,3.93
2018-08-13T02:27:18.940Z,2.90
2018-08-13T02:29:47.239Z,3.27
2018-08-13T02:32:15.463Z,2.70
2018-08-13T02:34:43.675Z,3.10
2018-08-13T02:37:12.032Z,2.70
2018-08-13T02:39:40.244Z,3.27
2018-08-13T02:42:08.447Z,3.10
2018-08-13T02:44:36.668Z,2.83
2018-08-13T02:47:05.015Z,3.27
2018-08-13T02:49:33.227Z,3.70
2018-08-13T02:52:01.440Z,8.97
2018-08-13T02:54:29.759Z,3.10
2018-08-13T02:56:57.956Z,4.27
2018-08-13T02:59:26.240Z,2.87
2018-08-13T03:01:54.428Z,4.13
2018-08-13T03:04:22.647Z,2.73
2018-08-13T03:06:50.932Z,3.77
2018-08-13T03:09:19.185Z,4.43
2018-08-13T03:11:47.441Z,3.75
2018-08-13T03:14:15.636Z,3.43
2018-08-13T03:16:43.860Z,3.00
2018-08-13T03:19:12.117Z,2.60
2018-08-13T03:21:40.333Z,3.70
2018-08-13T03:24:08.572Z,3.60
2018-08-13T03:26:36.781Z,3.07
2018-08-13T03:29:05.120Z,2.87
2018-08-13T03:31:33.316Z,2.60
2018-08-13T03:34:01.542Z,3.90
2018-08-13T03:36:30.108Z,3.93
2018-08-13T03:38:58.340Z,5.90
2018-08-13T03:41:26.573Z,2.60
2018-08-13T03:43:54.797Z,4.40
2018-08-13T03:46:23.090Z,3.10
2018-08-13T03:48:51.295Z,3.53
2018-08-13T03:51:19.684Z,3.13
2018-08-13T03:53:47.944Z,3.52
2018-08-13T03:56:16.108Z,3.00
2018-08-13T03:58:44.437Z,2.50
2018-08-13T04:01:18.849Z,5.93
2018-08-13T04:03:47.069Z,3.50
2018-08-13T04:06:15.312Z,7.47
2018-08-13T04:08:43.554Z,2.80
2018-08-13T04:11:12.386Z,4.63
2018-08-13T04:13:40.614Z,2.83
2018-08-13T04:16:09.009Z,4.87
2018-08-13T04:18:37.330Z,4.05
2018-08-13T04:21:05.681Z,9.10
2018-08-13T04:23:33.970Z,5.00
2018-08-13T04:26:02.254Z,4.13
2018-08-13T04:28:30.485Z,4.63
2018-08-13T04:30:58.674Z,3.20
2018-08-13T04:33:26.922Z,5.67
2018-08-13T04:35:55.158Z,2.70
2018-08-13T04:38:23.385Z,3.03
2018-08-13T04:40:51.624Z,2.70
2018-08-13T04:43:19.832Z,2.83
2018-08-13T04:45:48.089Z,3.87
2018-08-13T04:48:16.308Z,2.80
2018-08-13T04:50:44.514Z,6.13
2018-08-13T04:53:12.761Z,4.03
2018-08-13T04:55:40.990Z,3.40
2018-08-13T04:58:09.213Z,3.90
2018-08-13T05:00:37.434Z,3.45
2018-08-13T05:03:05.673Z,5.03
2018-08-13T05:05:33.889Z,3.50
2018-08-13T05:08:02.117Z,6.30
2018-08-13T05:10:30.809Z,14.38
2018-08-13T05:12:59.085Z,4.30
2018-08-13T05:15:27.314Z,2.80
2018-08-13T05:17:55.549Z,4.53
2018-08-13T05:20:23.789Z,3.63
2018-08-13T05:22:52.065Z,4.50
2018-08-13T05:25:20.293Z,4.57
2018-08-13T05:27:48.499Z,19.75
2018-08-13T05:30:16.795Z,10.57
2018-08-13T05:32:44.987Z,8.73
2018-08-13T05:35:13.261Z,5.47
2018-08-13T05:37:41.466Z,2.50
2018-08-13T05:40:10.822Z,8.27
2018-08-13T05:42:39.521Z,4.93
2018-08-13T05:45:09.002Z,5.93
2018-08-13T05:47:37.311Z,6.27
2018-08-13T05:50:06.994Z,7.40
2018-08-13T05:52:35.242Z,4.33
2018-08-13T05:55:03.717Z,5.73
2018-08-13T05:57:31.986Z,7.27
2018-08-13T06:00:00.212Z,3.37
2018-08-13T06:02:28.438Z,4.23
2018-08-13T06:04:56.762Z,11.13
2018-08-13T06:07:25.083Z,32.80
2018-08-13T06:09:53.110Z,16.07
2018-08-13T06:12:21.183Z,9.57
2018-08-13T06:14:49.130Z,5.70
2018-08-13T06:17:17.355Z,3.97
2018-08-13T06:19:45.574Z,3.73
2018-08-13T06:22:13.801Z,9.33
2018-08-13T06:24:42.115Z,5.62
2018-08-13T06:27:10.406Z,18.53
2018-08-13T06:29:38.651Z,64.97
2018-08-13T06:32:06.883Z,8.37
2018-08-13T06:34:35.079Z,5.60
2018-08-13T06:37:03.318Z,6.30
2018-08-13T06:39:31.535Z,4.80
2018-08-13T06:41:59.726Z,6.40
2018-08-13T06:44:27.926Z,10.73
2018-08-13T06:46:56.231Z,5.27
2018-08-13T06:49:24.483Z,6.93
2018-08-13T06:51:52.714Z,5.90
2018-08-13T06:54:20.982Z,5.00
2018-08-13T06:56:49.286Z,5.17
2018-08-13T06:59:17.495Z,3.97
2018-08-13T07:01:45.727Z,6.37
2018-08-13T07:04:13.950Z,6.73
2018-08-13T07:06:42.204Z,7.62
2018-08-13T07:09:11.267Z,4.00
2018-08-13T07:11:40.059Z,3.40
2018-08-13T07:14:08.282Z,6.80
2018-08-13T07:16:36.728Z,4.43
2018-08-13T07:19:05.399Z,5.67
2018-08-13T07:21:33.643Z,3.13
2018-08-13T07:24:01.874Z,4.40
2018-08-13T07:26:30.071Z,3.43
2018-08-13T07:28:58.291Z,3.03
2018-08-13T07:31:26.495Z,4.33
2018-08-13T07:33:54.835Z,3.13
2018-08-13T07:36:23.039Z,4.27
2018-08-13T07:38:51.933Z,3.93
2018-08-13T07:41:20.084Z,4.93
2018-08-13T07:43:48.340Z,6.97
2018-08-13T07:46:16.652Z,4.40
2018-08-13T07:48:44.879Z,5.40
2018-08-13T07:51:13.107Z,5.70
2018-08-13T07:53:41.327Z,3.80
2018-08-13T07:56:09.539Z,4.40
2018-08-13T07:58:37.863Z,5.63
2018-08-13T08:01:06.116Z,6.20
2018-08-13T08:03:34.444Z,8.87
2018-08-13T08:06:03.040Z,5.87
2018-08-13T08:08:31.837Z,9.60
2018-08-13T08:11:00.041Z,6.57
2018-08-13T08:13:28.284Z,5.53
2018-08-13T08:15:56.528Z,6.10
2018-08-13T08:18:24.480Z,6.97
2018-08-13T08:20:52.748Z,6.40
2018-08-13T08:23:21.044Z,5.60
2018-08-13T08:25:48.996Z,5.77
2018-08-13T08:28:17.236Z,5.67
2018-08-13T08:30:45.611Z,5.10
2018-08-13T08:33:13.946Z,6.03
2018-08-13T08:35:42.136Z,6.27
2018-08-13T08:38:10.440Z,5.53
2018-08-13T08:40:38.709Z,6.20
2018-08-13T08:43:08.580Z,6.33
2018-08-13T08:45:36.827Z,6.23
2018-08-13T08:48:06.593Z,5.90
2018-08-13T08:50:34.904Z,9.13
2018-08-13T08:53:03.164Z,6.23
2018-08-13T08:55:32.237Z,6.00
2018-08-13T08:58:00.525Z,7.57
2018-08-13T09:00:29.120Z,5.17
2018-08-13T09:02:57.405Z,6.27
2018-08-13T09:05:25.642Z,6.70
2018-08-13T09:07:53.920Z,6.10
2018-08-13T09:10:22.197Z,6.53
2018-08-13T09:12:50.448Z,5.30
2018-08-13T09:15:18.761Z,6.20
2018-08-13T09:17:59.136Z,5.67
2018-08-13T09:20:38.650Z,4.77
2018-08-13T09:23:18.061Z,7.50
2018-08-13T09:25:57.765Z,6.77
2018-08-13T09:28:37.760Z,5.90
2018-08-13T09:31:23.761Z,5.47
2018-08-13T09:33:57.281Z,5.07
2018-08-13T09:36:25.290Z,4.87
2018-08-13T09:38:53.293Z,7.70
2018-08-13T09:41:21.506Z,5.30
2018-08-13T09:43:49.842Z,4.77
2018-08-13T09:46:18.130Z,5.43
2018-08-13T09:48:46.706Z,4.28
2018-08-13T09:51:14.942Z,5.67
2018-08-13T09:53:43.180Z,6.03
2018-08-13T09:56:11.413Z,4.63
2018-08-13T09:58:39.686Z,3.60
2018-08-13T10:01:09.898Z,5.43
2018-08-13T10:03:38.326Z,2.80
2018-08-13T10:06:06.618Z,2.67
2018-08-13T10:08:34.588Z,5.47
2018-08-13T10:11:02.730Z,4.07
2018-08-13T10:13:30.968Z,2.87
2018-08-13T10:15:59.565Z,3.70
2018-08-13T10:18:27.501Z,2.80
2018-08-13T10:20:55.750Z,3.27
2018-08-13T10:23:23.988Z,2.83
2018-08-13T10:25:52.238Z,3.27
2018-08-13T10:28:20.541Z,3.47
2018-08-13T10:30:48.782Z,4.10
2018-08-13T10:33:17.002Z,4.77
2018-08-13T10:35:45.206Z,4.42
2018-08-13T10:38:13.470Z,3.17
2018-08-13T10:40:41.742Z,3.42
2018-08-13T10:43:10.119Z,3.33
2018-08-13T10:45:38.370Z,2.72
2018-08-13T10:48:06.850Z,2.87
2018-08-13T10:50:34.821Z,2.53
2018-08-13T10:53:03.148Z,4.37
2018-08-13T10:55:32.033Z,2.63
2018-08-13T10:58:00.296Z,1.90
2018-08-13T11:00:28.540Z,4.40
2018-08-13T11:02:56.981Z,2.03
2018-08-13T11:05:25.228Z,1.83
2018-08-13T11:07:53.509Z,2.30
2018-08-13T11:10:21.855Z,1.87
2018-08-13T11:12:50.126Z,2.37
2018-08-13T11:15:19.796Z,2.20
2018-08-13T11:17:48.044Z,2.87
2018-08-13T11:20:16.789Z,2.27
2018-08-13T11:22:45.213Z,1.90
2018-08-13T11:25:14.690Z,2.90
2018-08-13T11:27:43.188Z,2.40
2018-08-13T11:30:12.777Z,2.80
2018-08-13T11:32:41.028Z,2.70
2018-08-13T11:35:09.013Z,2.70
2018-08-13T11:37:37.012Z,2.27
2018-08-13T11:40:12.820Z,3.40
2018-08-13T11:42:41.173Z,2.70
2018-08-13T11:45:09.880Z,2.93
2018-08-13T11:47:38.725Z,2.40
2018-08-13T11:50:12.117Z,2.30
2018-08-13T11:52:40.472Z,3.07
2018-08-13T11:55:08.724Z,3.00
2018-08-13T11:57:37.873Z,2.73
2018-08-13T12:00:09.805Z,2.90
2018-08-13T12:02:38.491Z,3.00
2018-08-13T12:05:09.269Z,3.47
2018-08-13T12:07:37.518Z,3.20
2018-08-13T12:10:06.745Z,3.00
2018-08-13T12:12:35.098Z,2.60
2018-08-13T12:15:03.486Z,4.17
2018-08-13T12:17:31.557Z,2.33
2018-08-13T12:20:00.019Z,2.53
2018-08-13T12:22:27.961Z,2.60
2018-08-13T12:24:55.946Z,3.17
2018-08-13T12:27:23.998Z,3.70
2018-08-13T12:29:51.957Z,2.50
2018-08-13T12:32:20.274Z,2.50
2018-08-13T12:34:48.494Z,3.53
2018-08-13T12:37:16.731Z,2.70
2018-08-13T12:39:44.764Z,3.57
2018-08-13T12:42:12.774Z,2.50
2018-08-13T12:44:41.019Z,2.90
2018-08-13T12:47:09.347Z,4.60
2018-08-13T12:49:37.628Z,2.57
2018-08-13T12:52:06.150Z,3.10
2018-08-13T12:54:34.682Z,2.58
2018-08-13T12:57:02.930Z,2.60
2018-08-13T12:59:31.206Z,2.77
2018-08-13T13:01:59.546Z,3.00
2018-08-13T13:04:27.847Z,2.43
2018-08-13T13:06:56.043Z,3.37
2018-08-13T13:09:24.278Z,2.73
2018-08-13T13:11:52.499Z,3.40
2018-08-13T13:14:20.781Z,3.80
2018-08-13T13:16:49.015Z,2.93
2018-08-13T13:19:17.343Z,4.10
2018-08-13T13:21:45.596Z,3.87
2018-08-13T13:24:13.842Z,3.70
2018-08-13T13:26:42.177Z,3.10
2018-08-13T13:29:11.283Z,3.23
2018-08-13T13:31:39.534Z,3.67
2018-08-13T13:34:07.836Z,3.03
2018-08-13T13:36:36.095Z,3.50
2018-08-13T13:39:06.951Z,3.63
2018-08-13T13:41:35.378Z,4.00
2018-08-13T13:44:03.431Z,3.20
2018-08-13T13:46:31.495Z,5.20
2018-08-13T13:48:59.494Z,3.93
2018-08-13T13:51:27.910Z,5.73
2018-08-13T13:53:56.095Z,9.77
2018-08-13T13:56:24.076Z,4.80
2018-08-13T13:58:52.145Z,10.10
2018-08-13T14:01:20.223Z,4.27
2018-08-13T14:03:48.481Z,3.87
2018-08-13T14:06:16.795Z,6.90
2018-08-13T14:08:45.035Z,6.77
2018-08-13T14:11:13.015Z,5.00
2018-08-13T14:13:43.459Z,7.20
2018-08-13T14:16:11.419Z,7.63
2018-08-13T14:18:39.739Z,12.57
2018-08-13T14:21:07.696Z,5.87
2018-08-13T14:23:35.667Z,10.40
2018-08-13T14:26:04.059Z,3.93
2018-08-13T14:28:32.040Z,5.67
2018-08-13T14:31:00.081Z,9.53
2018-08-13T14:33:28.040Z,5.80
2018-08-13T14:35:56.044Z,2.80
2018-08-13T14:38:23.987Z,4.03
2018-08-13T14:40:52.237Z,5.93
2018-08-13T14:43:20.924Z,4.50
2018-08-13T14:45:49.148Z,3.60
2018-08-13T14:48:17.259Z,4.17
2018-08-13T14:50:45.247Z,3.80
2018-08-13T14:53:13.220Z,3.13
2018-08-13T14:55:41.248Z,3.47
2018-08-13T14:58:09.460Z,2.20
2018-08-13T15:00:38.022Z,1.83
2018-08-13T15:03:09.060Z,4.07
2018-08-13T15:05:37.324Z,3.20
2018-08-13T15:08:05.676Z,2.33
2018-08-13T15:10:34.640Z,3.77
2018-08-13T15:13:02.912Z,3.10
2018-08-13T15:15:31.297Z,4.37
2018-08-13T15:17:59.385Z,2.57
2018-08-13T15:20:29.913Z,2.17
2018-08-13T15:22:58.117Z,3.30
2018-08-13T15:25:26.716Z,3.53
2018-08-13T15:27:55.553Z,3.30
2018-08-13T15:30:24.329Z,2.17
2018-08-13T15:32:53.121Z,3.70
2018-08-13T15:35:21.401Z,4.10
2018-08-13T15:37:49.990Z,5.10
2018-08-13T15:40:18.601Z,4.80
2018-08-13T15:42:46.848Z,3.87
2018-08-13T15:45:17.203Z,4.17
2018-08-13T15:47:45.893Z,4.40
2018-08-13T15:50:15.757Z,5.67
2018-08-13T15:52:44.438Z,4.97
2018-08-13T15:55:12.941Z,3.63
2018-08-13T15:57:41.826Z,5.40
2018-08-13T16:00:13.869Z,4.87
2018-08-13T16:02:42.353Z,5.53
2018-08-13T16:05:11.049Z,5.53
2018-08-13T16:07:39.014Z,4.60
2018-08-13T16:10:08.826Z,4.57
2018-08-13T16:12:37.013Z,4.70
2018-08-13T16:15:05.337Z,4.70
2018-08-13T16:17:33.609Z,4.37
2018-08-13T16:20:01.850Z,3.83
2018-08-13T16:22:30.070Z,5.17
2018-08-13T16:24:58.845Z,3.77
2018-08-13T16:27:27.294Z,3.20
2018-08-13T16:29:55.542Z,2.80
2018-08-13T16:32:23.474Z,3.20
2018-08-13T16:34:51.502Z,3.40
2018-08-13T16:37:19.506Z,3.57
2018-08-13T16:39:47.455Z,4.70
2018-08-13T16:42:15.406Z,4.53
2018-08-13T16:44:43.455Z,4.23
2018-08-13T16:47:11.422Z,5.27
2018-08-13T16:49:39.903Z,4.83
2018-08-13T16:52:08.247Z,4.85
2018-08-13T16:54:36.454Z,4.60
2018-08-13T16:57:05.123Z,5.60
2018-08-13T16:59:33.386Z,6.03
2018-08-13T17:02:01.607Z,5.60
2018-08-13T17:04:30.111Z,5.43
2018-08-13T17:06:58.357Z,6.08
2018-08-13T17:09:26.598Z,5.47
2018-08-13T17:11:54.963Z,6.20
2018-08-13T17:14:23.408Z,5.70
2018-08-13T17:16:51.503Z,5.97
2018-08-13T17:19:19.791Z,5.77
2018-08-13T17:21:48.162Z,5.23
2018-08-13T17:24:16.429Z,6.20
2018-08-13T17:26:44.847Z,7.07
2018-08-13T17:29:13.141Z,6.57
2018-08-13T17:31:41.376Z,5.73
2018-08-13T17:34:10.408Z,5.80
2018-08-13T17:36:39.017Z,6.43
2018-08-13T17:39:10.245Z,5.80
2018-08-13T17:41:38.859Z,8.47
2018-08-13T17:44:07.103Z,6.40
2018-08-13T17:46:35.523Z,6.33
2018-08-13T17:49:04.032Z,6.30
2018-08-13T17:51:32.220Z,6.63
2018-08-13T17:54:00.412Z,6.50
2018-08-13T17:56:28.760Z,6.43
2018-08-13T17:58:56.876Z,7.13
2018-08-13T18:01:25.100Z,7.70
2018-08-13T18:03:53.760Z,7.90
2018-08-13T18:06:22.003Z,8.67
2018-08-13T18:08:50.352Z,9.50
2018-08-13T18:11:18.567Z,9.83
2018-08-13T18:13:46.772Z,9.70
2018-08-13T18:16:14.981Z,10.63
2018-08-13T18:18:43.232Z,11.43
2018-08-13T18:21:11.561Z,11.03
2018-08-13T18:23:39.700Z,12.90
2018-08-13T18:26:08.019Z,12.27
2018-08-13T18:28:36.332Z,13.53
2018-08-13T18:31:04.527Z,12.70
2018-08-13T18:33:32.500Z,13.30
2018-08-13T18:36:00.620Z,14.93
2018-08-13T18:38:28.627Z,14.33
2018-08-13T18:40:56.848Z,14.60
2018-08-13T18:43:25.064Z,14.10
2018-08-13T18:45:53.263Z,14.00
2018-08-13T18:48:21.684Z,13.83
2018-08-13T18:50:49.917Z,14.27
2018-08-13T18:53:18.111Z,14.57
2018-08-13T18:55:46.319Z,14.70
2018-08-13T18:58:14.572Z,17.30
2018-08-13T19:00:44.097Z,15.20
2018-08-13T19:03:12.520Z,15.03
2018-08-13T19:05:40.737Z,16.60
2018-08-13T19:08:09.048Z,14.10
2018-08-13T19:10:37.322Z,15.30
2018-08-13T19:13:05.746Z,16.57
2018-08-13T19:15:34.096Z,15.20
2018-08-13T19:18:02.375Z,15.47
2018-08-13T19:20:30.594Z,15.33
2018-08-13T19:23:00.432Z,13.50
2018-08-13T19:25:29.040Z,14.33
2018-08-13T19:27:57.337Z,16.27
2018-08-13T19:30:26.098Z,14.90
2018-08-13T19:32:54.713Z,14.77
2018-08-13T19:35:23.060Z,15.70
2018-08-13T19:37:51.369Z,15.07
2018-08-13T19:40:21.541Z,15.37
2018-08-13T19:42:50.349Z,14.47
2018-08-13T19:45:19.286Z,15.30
2018-08-13T19:47:48.013Z,15.03
2018-08-13T19:50:16.382Z,17.03
2018-08-13T19:52:45.973Z,14.67
2018-08-13T19:55:14.877Z,14.27
2018-08-13T19:57:43.173Z,15.00
2018-08-13T20:00:20.833Z,15.27
2018-08-13T20:02:49.429Z,14.28
2018-08-13T20:05:18.845Z,14.57
2018-08-13T20:07:47.079Z,14.70
2018-08-13T20:10:15.933Z,14.87
2018-08-13T20:12:44.970Z,15.20
2018-08-13T20:15:13.230Z,15.07
2018-08-13T20:17:41.621Z,15.17
2018-08-13T20:20:11.678Z,14.73
2018-08-13T20:22:40.054Z,16.37
2018-08-13T20:25:10.078Z,15.43
2018-08-13T20:27:44.666Z,15.40
2018-08-13T20:30:15.049Z,15.23
2018-08-13T20:32:44.166Z,15.60
2018-08-13T20:35:12.369Z,14.67
2018-08-13T20:37:40.434Z,14.90
2018-08-13T20:40:09.462Z,15.93
2018-08-13T20:42:37.737Z,14.80
2018-08-13T20:45:06.469Z,15.20
2018-08-13T20:47:34.438Z,15.37
2018-08-13T20:50:02.402Z,16.00
2018-08-13T20:52:30.405Z,15.67
2018-08-13T20:54:58.377Z,15.37
2018-08-13T20:57:26.334Z,15.63
2018-08-13T20:59:54.433Z,16.30
2018-08-13T21:02:22.553Z,15.57
2018-08-13T21:04:50.639Z,15.77
2018-08-13T21:07:18.633Z,15.33
2018-08-13T21:09:46.616Z,15.50
2018-08-13T21:12:14.582Z,15.27
2018-08-13T21:14:42.597Z,15.40
2018-08-13T21:17:10.598Z,15.10
2018-08-13T21:19:38.578Z,15.90
2018-08-13T21:22:06.562Z,14.80
2018-08-13T21:24:36.930Z,16.10
2018-08-13T21:27:04.897Z,15.60
2018-08-13T21:29:32.869Z,15.23
2018-08-13T21:32:01.477Z,14.87
2018-08-13T21:34:29.560Z,14.40
2018-08-13T21:36:57.631Z,14.73
2018-08-13T21:39:25.621Z,14.33
2018-08-13T21:41:53.590Z,14.63
2018-08-13T21:44:21.557Z,13.67
2018-08-13T21:46:49.568Z,13.50
2018-08-13T21:49:17.533Z,13.17
2018-08-13T21:51:45.513Z,12.43
2018-08-13T21:54:13.573Z,12.30
2018-08-13T21:56:41.606Z,13.33
2018-08-13T21:59:09.610Z,12.47
2018-08-13T22:01:42.858Z,11.57
2018-08-13T22:04:10.847Z,11.23
2018-08-13T22:06:38.840Z,11.10
2018-08-13T22:09:07.394Z,11.10
2018-08-13T22:11:36.147Z,11.47
2018-08-13T22:14:04.393Z,10.87
2018-08-13T22:16:32.363Z,10.60
2018-08-13T22:19:00.343Z,11.47
2018-08-13T22:21:28.315Z,10.93
2018-08-13T22:25:03.462Z,11.60
2018-08-13T22:27:31.498Z,11.60
2018-08-13T22:29:59.450Z,11.20
2018-08-13T22:32:27.444Z,11.67
2018-08-13T22:34:55.389Z,11.13
2018-08-13T22:37:23.348Z,11.90
2018-08-13T22:39:51.334Z,12.27
2018-08-13T22:42:19.334Z,13.20
2018-08-13T22:44:47.367Z,12.73
2018-08-13T22:47:15.350Z,13.63
2018-08-13T22:49:43.287Z,13.67
2018-08-13T22:52:11.350Z,14.83
2018-08-13T22:54:39.267Z,13.20
2018-08-13T22:57:07.228Z,13.53
2018-08-13T22:59:35.200Z,13.83
2018-08-13T23:02:03.231Z,14.07
2018-08-13T23:04:31.203Z,14.00
2018-08-13T23:06:59.171Z,13.70
2018-08-13T23:09:27.131Z,14.17
2018-08-13T23:11:55.095Z,14.53
2018-08-13T23:14:23.089Z,15.47
2018-08-13T23:16:51.113Z,15.27
2018-08-13T23:19:19.072Z,14.70
2018-08-13T23:21:47.068Z,16.43
2018-08-13T23:24:15.039Z,17.17
2018-08-13T23:26:43.076Z,19.57
2018-08-13T23:29:11.068Z,19.40
2018-08-13T23:31:39.123Z,19.97
2018-08-13T23:34:07.084Z,18.63
2018-08-13T23:36:35.080Z,19.50
2018-08-13T23:39:03.068Z,19.77
2018-08-13T23:41:31.077Z,19.20
2018-08-13T23:43:59.075Z,20.33
2018-08-13T23:46:27.072Z,20.57
2018-08-13T23:48:55.084Z,18.73
2018-08-13T23:51:23.112Z,18.13
2018-08-13T23:53:51.028Z,17.90
2018-08-13T23:56:19.032Z,18.73
2018-08-13T23:58:47.012Z,21.03
